Time;durP1;ratioP1;P1;durP2;ratioP2;P2;SDS_P1;SDS_P2;PMS_P1;PMS_P2;Temp;Humidity;BMP_temperature;BMP_pressure;BME280_temperature;BME280_humidity;BME280_pressure;Samples;Min_cycle;Max_cycle;Signal;HPM_P1;HPM_P2
2022/06/26 00:01:32;;;;;;;4.25;1.40;;;;;;;22.84;51.80;100211.88;4146239;28;20045;-70
2022/06/26 00:03:34;;;;;;;3.22;1.17;;;;;;;22.85;51.90;100213.56;4130000;28;20074;-70
2022/06/26 00:05:37;;;;;;;2.85;1.10;;;;;;;22.86;51.76;100215.31;4128895;28;20034;-71
2022/06/26 00:07:40;;;;;;;4.28;1.20;;;;;;;22.91;51.36;100217.75;4146673;28;20060;-70
2022/06/26 00:09:44;;;;;;;3.80;1.20;;;;;;;22.89;51.43;100216.97;4129316;28;20034;-72
2022/06/26 00:11:48;;;;;;;0.98;0.93;;;;;;;22.85;51.51;100237.41;4129747;28;20044;-71
2022/06/26 00:13:52;;;;;;;2.63;1.10;;;;;;;22.87;51.36;100227.63;4145846;28;20038;-70
2022/06/26 00:15:58;;;;;;;3.22;1.10;;;;;;;22.86;51.64;100236.50;4147357;28;20443;-70
2022/06/26 00:18:01;;;;;;;3.05;0.90;;;;;;;22.86;51.84;100246.25;4147435;28;20413;-70
2022/06/26 00:20:05;;;;;;;5.03;0.90;;;;;;;22.88;51.41;100244.41;4146399;28;20129;-70
2022/06/26 00:22:08;;;;;;;4.95;1.17;;;;;;;22.82;52.04;100253.44;4147104;28;20500;-68
2022/06/26 00:24:11;;;;;;;2.03;1.00;;;;;;;22.82;51.97;100256.09;4147332;28;20048;-68
2022/06/26 00:26:14;;;;;;;4.32;1.10;;;;;;;22.83;52.01;100252.53;4145861;28;20287;-68
2022/06/26 00:28:18;;;;;;;2.25;1.10;;;;;;;22.83;51.71;100257.84;4131689;28;20049;-68
2022/06/26 00:30:21;;;;;;;4.20;1.05;;;;;;;22.80;52.01;100260.63;4129939;28;20692;-69
2022/06/26 00:32:24;;;;;;;2.58;1.13;;;;;;;22.81;51.81;100260.56;4128474;28;20042;-68
2022/06/26 00:34:30;;;;;;;2.10;1.08;;;;;;;22.76;52.15;100262.50;4146992;28;20038;-70
2022/06/26 00:36:33;;;;;;;1.45;0.90;;;;;;;22.73;52.31;100267.09;4147894;28;20120;-69
2022/06/26 00:38:36;;;;;;;2.42;1.15;;;;;;;22.75;52.70;100270.53;4130404;28;20097;-69
2022/06/26 00:40:40;;;;;;;3.63;1.10;;;;;;;22.76;52.58;100277.56;4128595;28;20038;-70
2022/06/26 00:42:43;;;;;;;1.83;1.02;;;;;;;22.78;52.33;100278.34;4129151;28;20125;-68
2022/06/26 00:44:51;;;;;;;2.88;1.40;;;;;;;22.74;52.46;100285.56;4145734;28;20142;-69
2022/06/26 00:46:54;;;;;;;1.25;0.90;;;;;;;22.72;52.73;100291.84;4127469;28;20046;-68
2022/06/26 00:48:57;;;;;;;4.60;1.20;;;;;;;22.72;54.24;100290.09;4147347;28;20041;-69
2022/06/26 00:51:00;;;;;;;4.53;1.00;;;;;;;22.69;54.25;100292.81;4129099;28;20041;-69
2022/06/26 00:53:05;;;;;;;1.17;1.00;;;;;;;22.68;54.34;100293.75;4128985;28;20566;-69
2022/06/26 00:55:11;;;;;;;0.88;0.88;;;;;;;22.64;54.78;100306.25;4113364;28;20038;-69
2022/06/26 00:57:14;;;;;;;3.40;1.05;;;;;;;22.62;54.43;100296.66;4119371;28;20051;-69
2022/06/26 00:59:17;;;;;;;2.05;1.00;;;;;;;22.58;54.27;100301.19;4113315;28;20130;-69
2022/06/26 01:01:21;;;;;;;2.20;1.00;;;;;;;22.56;53.94;100303.06;4147127;28;20044;-69
2022/06/26 01:03:24;;;;;;;5.47;1.00;;;;;;;22.52;53.87;100309.38;4147469;28;20623;-69
2022/06/26 01:05:28;;;;;;;5.28;1.27;;;;;;;22.49;54.00;100306.84;4129362;28;20046;-69
2022/06/26 01:07:32;;;;;;;4.25;0.90;;;;;;;22.50;54.00;100313.84;4144439;28;20046;-69
2022/06/26 01:09:35;;;;;;;2.65;1.38;;;;;;;22.50;54.02;100319.16;4112516;28;20059;-68
2022/06/26 01:11:39;;;;;;;3.35;0.98;;;;;;;22.51;54.35;100320.91;4147224;28;20026;-69
2022/06/26 01:13:43;;;;;;;2.83;1.30;;;;;;;22.47;54.44;100321.94;4146941;28;20041;-69
2022/06/26 01:15:46;;;;;;;2.45;1.13;;;;;;;22.44;55.72;100327.34;4113102;28;20138;-69
2022/06/26 01:17:51;;;;;;;0.88;0.88;;;;;;;22.42;56.41;100342.44;4159455;28;20053;-69
2022/06/26 01:19:55;;;;;;;3.00;1.27;;;;;;;22.39;56.04;100343.41;4158915;28;20044;-69
2022/06/26 01:21:58;;;;;;;3.80;1.27;;;;;;;22.27;56.05;100343.84;4128689;28;20035;-69
2022/06/26 01:24:04;;;;;;;3.13;0.98;;;;;;;22.28;56.24;100341.13;4142272;28;20576;-69
2022/06/26 01:26:07;;;;;;;1.25;1.15;;;;;;;22.27;56.51;100346.50;4145500;28;20561;-70
2022/06/26 01:28:10;;;;;;;5.53;1.08;;;;;;;22.26;56.54;100352.69;4113144;28;20070;-69
2022/06/26 01:30:13;;;;;;;2.88;0.90;;;;;;;22.22;56.71;100351.06;4146852;28;20056;-69
2022/06/26 01:32:17;;;;;;;1.40;1.10;;;;;;;22.17;56.30;100345.94;4124742;28;20062;-69
2022/06/26 01:34:21;;;;;;;2.80;0.80;;;;;;;22.28;56.29;100346.44;4129056;28;20066;-69
2022/06/26 01:36:27;;;;;;;1.63;1.10;;;;;;;22.27;55.96;100354.44;4129109;28;20046;-69
2022/06/26 01:38:32;;;;;;;1.42;0.90;;;;;;;22.24;56.08;100351.88;4129931;28;20070;-69
2022/06/26 01:40:36;;;;;;;1.65;1.00;;;;;;;22.13;55.85;100353.13;4129060;28;20046;-69
2022/06/26 01:42:40;;;;;;;2.10;1.00;;;;;;;22.08;55.78;100348.94;4128590;28;20414;-70
2022/06/26 01:44:43;;;;;;;2.17;1.20;;;;;;;21.99;56.28;100347.47;4134487;28;20041;-70
2022/06/26 01:46:47;;;;;;;4.22;1.30;;;;;;;21.99;56.58;100344.81;4160027;28;20108;-72
2022/06/26 01:48:50;;;;;;;2.10;1.00;;;;;;;22.06;57.38;100342.81;4130523;28;20046;-71
2022/06/26 01:50:55;;;;;;;1.75;1.10;;;;;;;22.19;57.78;100335.31;4113365;28;20065;-70
2022/06/26 01:52:59;;;;;;;1.75;1.02;;;;;;;22.08;58.15;100333.06;4157814;28;20041;-70
2022/06/26 01:55:02;;;;;;;1.13;1.00;;;;;;;22.06;58.88;100329.56;4144830;28;20477;-71
2022/06/26 01:57:10;;;;;;;2.60;1.58;;;;;;;22.02;59.52;100333.25;4128969;28;20133;-70
2022/06/26 01:59:12;;;;;;;3.00;1.55;;;;;;;21.96;59.77;100340.50;4146012;28;20049;-70
2022/06/26 02:01:19;;;;;;;2.20;1.45;;;;;;;21.93;60.21;100337.06;4145019;28;20129;-70
2022/06/26 02:03:25;;;;;;;3.05;1.48;;;;;;;21.91;60.92;100331.84;4146155;28;20100;-71
2022/06/26 02:05:29;;;;;;;1.70;1.35;;;;;;;21.90;60.64;100330.13;4134104;28;20042;-71
2022/06/26 02:07:32;;;;;;;3.75;1.48;;;;;;;21.88;60.59;100316.06;4113718;28;20035;-70
2022/06/26 02:14:20;;;;;;;2.67;1.50;;;;;;;21.72;62.10;100309.59;4134694;28;20050;-69
2022/06/26 02:16:32;;;;;;;2.13;1.50;;;;;;;21.72;61.53;100307.78;4132078;28;20101;-70
2022/06/26 02:18:36;;;;;;;1.75;1.35;;;;;;;21.74;60.88;100290.09;4132826;28;20563;-69
2022/06/26 02:20:40;;;;;;;3.42;1.40;;;;;;;21.80;60.68;100291.69;4131769;28;20121;-69
2022/06/26 02:22:45;;;;;;;3.45;1.50;;;;;;;21.84;60.34;100279.19;4147511;28;20088;-69
2022/06/26 02:24:48;;;;;;;3.33;1.75;;;;;;;21.85;60.02;100279.13;4151878;28;20034;-69
2022/06/26 02:26:50;;;;;;;1.90;1.30;;;;;;;21.82;60.16;100281.88;4131865;28;20466;-69
2022/06/26 02:28:53;;;;;;;6.30;1.48;;;;;;;21.78;60.75;100277.63;4131747;28;20034;-69
2022/06/26 02:30:58;;;;;;;2.95;1.20;;;;;;;21.77;62.23;100283.81;4163190;28;20045;-72
2022/06/26 02:33:03;;;;;;;2.28;1.40;;;;;;;21.75;62.71;100285.66;4131081;28;20069;-72
2022/06/26 02:35:06;;;;;;;2.93;1.20;;;;;;;21.68;63.10;100281.50;4151704;28;20053;-72
2022/06/26 02:37:11;;;;;;;1.50;1.40;;;;;;;21.64;63.38;100290.47;4131554;28;20053;-72
2022/06/26 02:39:18;;;;;;;2.97;1.30;;;;;;;21.63;63.32;100291.41;4110999;28;20470;-72
2022/06/26 02:41:25;;;;;;;1.95;1.30;;;;;;;21.59;63.34;100294.13;4131246;28;20085;-70
2022/06/26 02:43:29;;;;;;;1.52;1.30;;;;;;;21.55;63.45;100297.81;4147762;28;20042;-71
2022/06/26 02:45:34;;;;;;;1.92;1.40;;;;;;;21.52;63.54;100295.25;4133924;28;20134;-71
2022/06/26 02:47:38;;;;;;;3.03;1.83;;;;;;;21.54;63.47;100290.78;4131835;28;20046;-71
2022/06/26 02:49:41;;;;;;;2.35;1.38;;;;;;;21.52;63.99;100292.59;4146844;28;20413;-72
2022/06/26 02:51:44;;;;;;;3.08;1.30;;;;;;;21.50;63.96;100289.13;4130914;28;20096;-71
2022/06/26 02:53:47;;;;;;;1.73;1.50;;;;;;;;;;4115311;28;20043;-71
2022/06/26 02:55:50;;;;;;;3.33;1.58;;;;;;;21.44;63.65;100297.28;4163298;28;20045;-71
2022/06/26 02:57:57;;;;;;;2.10;1.58;;;;;;;21.40;63.54;100298.28;4129722;28;20129;-70
2022/06/26 03:00:00;;;;;;;2.47;1.48;;;;;;;21.39;63.77;100293.91;4161644;28;20500;-70
2022/06/26 03:02:08;;;;;;;3.15;1.70;;;;;;;21.37;64.10;100286.03;4162443;28;20045;-70
2022/06/26 03:04:20;;;;;;;5.18;1.77;;;;;;;21.37;64.32;100288.66;4154629;28;20072;-70
2022/06/26 03:06:23;;;;;;;3.60;1.50;;;;;;;21.37;64.69;100278.09;4154390;28;20038;-70
2022/06/26 03:08:26;;;;;;;5.10;1.63;;;;;;;21.37;64.84;100279.88;4131792;28;20038;-70
2022/06/26 03:10:31;;;;;;;2.55;1.40;;;;;;;21.35;64.77;100279.94;4125423;28;20505;-70
2022/06/26 03:12:43;;;;;;;2.75;1.48;;;;;;;21.35;64.92;100279.03;4131561;28;20129;-72
2022/06/26 03:14:46;;;;;;;2.97;1.55;;;;;;;21.30;65.22;100283.63;4129592;28;20049;-70
2022/06/26 03:16:49;;;;;;;3.88;1.55;;;;;;;21.24;65.38;100282.06;4127543;28;20069;-71
2022/06/26 03:18:52;;;;;;;3.40;1.83;;;;;;;21.26;65.50;100278.47;4131868;28;20041;-70
2022/06/26 03:20:57;;;;;;;2.80;1.38;;;;;;;21.22;65.38;100282.09;4131464;28;20125;-70
2022/06/26 03:23:00;;;;;;;4.93;1.42;;;;;;;21.15;65.60;100285.88;4133374;28;20116;-72
2022/06/26 03:25:03;;;;;;;5.18;1.75;;;;;;;21.16;65.92;100294.66;4145927;28;20112;-70
2022/06/26 03:27:06;;;;;;;2.55;1.63;;;;;;;21.17;65.74;100302.53;4114760;28;20046;-71
2022/06/26 03:29:11;;;;;;;3.42;1.83;;;;;;;21.19;65.53;100318.38;4115513;28;20067;-70
2022/06/26 03:31:15;;;;;;;2.28;1.35;;;;;;;21.06;65.36;100321.38;4129683;28;20045;-70
2022/06/26 03:33:20;;;;;;;3.40;1.40;;;;;;;20.98;65.52;100325.19;4130573;28;20125;-70
2022/06/26 03:35:23;;;;;;;1.52;1.40;;;;;;;21.00;65.42;100331.31;4130448;28;20535;-70
2022/06/26 03:37:27;;;;;;;4.50;1.70;;;;;;;20.90;65.80;100331.56;4131289;28;20505;-70
2022/06/26 03:39:30;;;;;;;;;;;;;;;20.59;66.83;100350.09;4147148;28;20095;-70
2022/06/26 03:41:34;;;;;;;2.28;1.40;;;;;;;20.57;66.94;100351.91;4145943;28;20285;-69
2022/06/26 03:43:37;;;;;;;2.47;1.40;;;;;;;20.62;66.97;100346.47;4131138;28;20705;-70
2022/06/26 03:45:40;;;;;;;1.48;1.30;;;;;;;20.58;67.06;100343.94;4130493;28;20138;-70
2022/06/26 03:47:43;;;;;;;4.78;1.83;;;;;;;20.57;67.13;100342.22;4114295;28;20039;-71
2022/06/26 03:49:46;;;;;;;1.85;1.52;;;;;;;20.57;67.67;100338.69;4129679;28;20093;-70
2022/06/26 03:51:50;;;;;;;2.87;1.33;;;;;;;20.52;67.75;100341.47;4128673;28;20074;-70
2022/06/26 03:53:54;;;;;;;3.45;1.63;;;;;;;20.68;67.26;100335.78;4130365;28;20317;-70
2022/06/26 03:55:58;;;;;;;5.38;1.63;;;;;;;20.70;67.26;100313.69;4130322;28;20042;-70
2022/06/26 03:58:01;;;;;;;3.28;1.23;;;;;;;20.72;67.44;100318.91;4148583;28;20527;-70
2022/06/26 04:00:07;;;;;;;4.22;1.50;;;;;;;20.75;67.18;100316.22;4129961;28;20053;-70
2022/06/26 04:02:28;;;;;;;1.55;1.35;;;;;;;20.75;67.04;100322.34;4144885;28;20509;-71
2022/06/26 04:04:31;;;;;;;2.55;1.30;;;;;;;20.74;67.32;100346.16;4128756;28;20397;-70
2022/06/26 04:06:34;;;;;;;4.90;1.50;;;;;;;20.61;67.79;100355.34;4152797;28;20044;-71
2022/06/26 04:08:47;;;;;;;2.45;1.70;;;;;;;20.57;68.18;100349.25;4162479;28;20064;-70
2022/06/26 04:10:51;;;;;;;3.90;1.40;;;;;;;20.77;67.07;100335.50;4137365;28;20062;-62
2022/06/26 04:13:05;;;;;;;2.17;1.48;;;;;;;20.69;67.30;100348.06;4144660;28;20212;-63
2022/06/26 04:15:12;;;;;;;5.65;1.70;;;;;;;20.83;66.85;100334.47;4145103;28;20042;-63
2022/06/26 04:17:15;;;;;;;3.25;1.67;;;;;;;20.96;66.55;100334.94;4146888;28;20038;-63
2022/06/26 04:19:50;;;;;;;3.77;1.30;;;;;;;21.19;66.00;100337.72;4144237;28;20064;-63
2022/06/26 04:21:53;;;;;;;2.58;1.17;;;;;;;21.42;65.57;100338.75;4130079;28;20089;-62
2022/06/26 04:23:56;;;;;;;3.55;1.38;;;;;;;21.57;64.50;100343.59;4146177;28;20078;-63
2022/06/26 04:26:01;;;;;;;4.60;1.58;;;;;;;21.58;64.56;100339.16;4129252;28;20069;-63
2022/06/26 04:28:04;;;;;;;5.57;1.30;;;;;;;21.69;64.55;100346.75;4128291;28;20540;-63
2022/06/26 04:30:11;;;;;;;3.50;1.67;;;;;;;21.80;64.27;100347.25;4129051;28;20046;-64
2022/06/26 04:32:18;;;;;;;5.50;1.90;;;;;;;21.88;64.10;100341.69;4106461;28;20039;-63
2022/06/26 04:34:21;;;;;;;1.70;1.10;;;;;;;21.97;63.68;100342.22;4112051;28;20479;-63
2022/06/26 04:36:26;;;;;;;3.22;1.77;;;;;;;22.13;63.19;100341.69;4144985;28;20030;-63
2022/06/26 04:38:29;;;;;;;2.78;1.25;;;;;;;22.17;63.01;100348.59;4155026;28;20084;-63
2022/06/26 04:40:33;;;;;;;2.35;1.20;;;;;;;22.16;62.71;100344.22;4128492;28;20037;-63
2022/06/26 04:42:38;;;;;;;1.57;1.20;;;;;;;22.13;62.91;100339.03;4127379;28;20125;-64
2022/06/26 04:44:41;;;;;;;;;;;;;;;21.87;63.50;100340.78;4158838;28;20127;-65
2022/06/26 04:46:46;;;;;;;3.22;1.30;;;;;;;21.96;63.31;100344.91;4158506;28;19925;-65
2022/06/26 04:48:49;;;;;;;2.72;1.27;;;;;;;22.03;63.21;100348.22;4114152;28;20081;-64
2022/06/26 04:50:53;;;;;;;1.70;1.25;;;;;;;22.04;63.30;100347.31;4121105;28;20060;-64
2022/06/26 04:52:57;;;;;;;4.03;1.30;;;;;;;22.03;63.24;100351.72;4129689;28;20477;-65
2022/06/26 04:55:04;;;;;;;2.25;1.30;;;;;;;21.95;63.37;100351.16;4126228;28;20034;-65
2022/06/26 04:57:13;;;;;;;2.70;1.13;;;;;;;22.01;63.45;100358.00;4130969;28;20042;-64
2022/06/26 04:59:23;;;;;;;3.50;1.60;;;;;;;21.88;63.69;100357.56;4137756;28;20038;-65
2022/06/26 05:01:27;;;;;;;2.47;1.10;;;;;;;21.78;63.98;100357.00;4147137;28;20048;-65
2022/06/26 05:03:37;;;;;;;3.20;1.52;;;;;;;21.71;63.71;100358.13;4128812;28;20038;-69
2022/06/26 05:06:21;;;;;;;1.52;1.13;;;;;;;21.43;63.87;100354.56;4125096;28;20050;-70
2022/06/26 05:08:42;;;;;;;2.75;1.50;;;;;;;21.38;64.13;100363.59;4137518;28;22018;-69
2022/06/26 05:10:45;;;;;;;1.67;1.30;;;;;;;21.36;64.27;100368.06;4142206;28;20045;-69
2022/06/26 05:12:48;;;;;;;3.38;1.23;;;;;;;21.33;64.71;100376.94;4129681;28;20491;-70
2022/06/26 05:15:25;;;;;;;1.33;1.10;;;;;;;21.25;64.68;100385.13;4103840;28;20054;-69
2022/06/26 05:17:28;;;;;;;;;;;;;;;21.12;65.06;100389.06;4114608;28;20082;-70
2022/06/26 05:19:31;;;;;;;4.22;1.80;;;;;;;21.23;64.87;100394.00;4130148;28;19921;-69
2022/06/26 05:21:34;;;;;;;3.20;1.75;;;;;;;21.28;64.75;100390.31;4129438;28;20132;-69
2022/06/26 05:23:37;;;;;;;6.40;1.77;;;;;;;21.22;64.31;100394.94;4130283;28;20038;-70
2022/06/26 05:25:44;;;;;;;3.47;1.73;;;;;;;21.23;64.09;100397.53;4130252;28;20475;-69
2022/06/26 05:27:47;;;;;;;4.15;1.50;;;;;;;21.30;64.13;100389.41;4130295;28;20042;-69
2022/06/26 05:29:51;;;;;;;3.33;1.30;;;;;;;21.33;63.90;100400.75;4130227;28;20129;-69
2022/06/26 05:31:55;;;;;;;2.47;1.45;;;;;;;21.27;63.47;100399.19;4129853;28;20591;-68
2022/06/26 05:33:58;;;;;;;3.70;1.90;;;;;;;21.24;63.72;100404.53;4130145;28;20128;-69
2022/06/26 05:36:08;;;;;;;4.63;1.85;;;;;;;21.21;63.71;100409.91;4130292;28;20548;-69
2022/06/26 05:38:11;;;;;;;2.08;1.50;;;;;;;21.24;64.08;100420.41;4132580;28;20078;-70
2022/06/26 05:40:14;;;;;;;3.70;2.10;;;;;;;21.28;63.91;100418.53;4133412;28;20530;-70
2022/06/26 05:42:18;;;;;;;2.60;1.80;;;;;;;21.35;63.88;100430.66;4116805;28;20055;-69
2022/06/26 05:44:21;;;;;;;5.68;1.75;;;;;;;21.42;63.92;100431.31;4133326;28;20125;-69
2022/06/26 05:46:27;;;;;;;5.40;2.00;;;;;;;21.55;63.39;100424.78;4133357;28;20039;-69
2022/06/26 05:48:57;;;;;;;2.80;1.55;;;;;;;21.57;63.44;100416.81;4148495;28;20088;-69
2022/06/26 05:51:07;;;;;;;3.75;1.80;;;;;;;21.69;63.25;100410.25;4117170;28;20055;-69
2022/06/26 05:53:17;;;;;;;4.45;1.90;;;;;;;21.75;62.95;100415.31;4132972;28;20046;-69
2022/06/26 05:55:39;;;;;;;4.60;1.48;;;;;;;21.77;62.84;100418.78;4150659;28;20096;-71
2022/06/26 05:58:02;;;;;;;1.80;1.20;;;;;;;21.82;62.72;100416.84;4146511;28;20061;-70
2022/06/26 06:00:31;;;;;;;3.92;1.60;;;;;;;21.94;62.46;100421.72;4149592;28;20042;-69
2022/06/26 06:02:34;;;;;;;2.08;1.40;;;;;;;21.99;62.24;100421.59;4150113;28;20138;-69
2022/06/26 06:04:39;;;;;;;4.60;1.75;;;;;;;22.04;61.19;100421.44;4132902;28;20034;-69
2022/06/26 06:06:42;;;;;;;3.28;1.52;;;;;;;22.02;61.55;100429.44;4133045;28;20038;-70
2022/06/26 06:08:46;;;;;;;2.77;1.03;;;;;;;22.07;61.54;100427.47;4133032;28;20085;-70
2022/06/26 06:10:49;;;;;;;4.57;1.52;;;;;;;22.03;61.42;100425.00;4132997;28;20042;-70
2022/06/26 06:12:53;;;;;;;2.17;1.10;;;;;;;22.01;61.58;100413.59;4132602;28;20045;-69
2022/06/26 06:14:57;;;;;;;1.85;1.10;;;;;;;21.98;62.08;100414.56;4116675;28;20043;-70
2022/06/26 06:17:35;;;;;;;2.42;1.65;;;;;;;21.90;62.46;100421.88;4116658;28;20055;-69
2022/06/26 06:19:23;;;;;;;1.95;1.38;;;;;;;21.90;62.21;100419.22;4132789;28;20327;-70
2022/06/26 06:21:27;;;;;;;3.10;1.20;;;;;;;22.01;62.10;100416.25;4132855;28;20053;-69
2022/06/26 06:23:30;;;;;;;;;;;;;;;21.86;62.82;100423.78;4133000;28;20100;-71
2022/06/26 06:25:34;;;;;;;2.10;0.90;;;;;;;22.01;62.34;100437.44;4132646;28;19968;-70
2022/06/26 06:27:40;;;;;;;1.33;1.08;;;;;;;22.05;62.06;100436.38;4116559;28;20085;-70
2022/06/26 06:29:47;;;;;;;1.00;0.85;;;;;;;22.14;61.92;100449.31;4132725;28;20057;-70
2022/06/26 06:31:51;;;;;;;1.75;1.30;;;;;;;22.15;61.75;100451.03;4132315;28;20043;-69
2022/06/26 06:33:59;;;;;;;1.20;1.10;;;;;;;22.09;61.54;100448.59;4132616;28;20038;-72
2022/06/26 06:36:05;;;;;;;1.25;1.00;;;;;;;22.06;61.36;100446.06;4132653;28;20409;-72
2022/06/26 06:38:09;;;;;;;2.67;1.00;;;;;;;22.04;60.77;100450.56;4148849;28;20046;-70
2022/06/26 06:40:15;;;;;;;2.35;1.13;;;;;;;22.06;60.24;100451.34;4132629;28;20057;-69
2022/06/26 06:42:18;;;;;;;2.88;1.05;;;;;;;22.14;60.80;100457.28;4149426;28;20505;-70
2022/06/26 06:44:21;;;;;;;2.83;1.23;;;;;;;22.31;60.48;100446.97;4132488;28;20136;-69
2022/06/26 06:46:43;;;;;;;1.73;1.00;;;;;;;22.27;60.27;100465.66;4132426;28;20157;-70
2022/06/26 06:48:54;;;;;;;3.88;1.02;;;;;;;22.29;59.55;100459.38;4131492;28;20077;-69
2022/06/26 06:51:09;;;;;;;1.30;0.90;;;;;;;22.24;58.52;100469.28;4132423;28;20042;-70
2022/06/26 06:53:13;;;;;;;1.55;1.00;;;;;;;22.36;57.90;100469.81;4115842;28;20085;-68
2022/06/26 06:55:16;;;;;;;;;;;;;;;22.35;58.08;100471.56;4132666;28;20045;-70
2022/06/26 06:57:19;;;;;;;3.58;1.20;;;;;;;22.46;58.15;100468.56;4132302;28;19949;-69
2022/06/26 06:59:22;;;;;;;3.85;1.00;;;;;;;22.54;58.26;100470.94;4132217;28;20045;-70
2022/06/26 07:01:25;;;;;;;1.80;0.95;;;;;;;22.59;58.12;100461.91;4132197;28;20136;-69
2022/06/26 07:03:28;;;;;;;2.05;1.13;;;;;;;22.63;56.24;100460.00;4130782;28;20038;-70
2022/06/26 07:05:32;;;;;;;1.25;0.82;;;;;;;22.72;56.15;100472.94;4158422;28;20052;-69
2022/06/26 07:07:35;;;;;;;2.95;1.00;;;;;;;22.78;56.54;100466.53;4132122;28;20133;-69
2022/06/26 07:09:40;;;;;;;1.63;0.95;;;;;;;22.82;56.53;100473.44;4132233;28;20514;-69
2022/06/26 07:11:44;;;;;;;1.33;0.68;;;;;;;22.87;55.99;100471.50;4115539;28;20042;-69
2022/06/26 07:13:47;;;;;;;;;;;;;;;22.78;55.40;100471.81;4132468;28;20440;-69
2022/06/26 07:15:51;;;;;;;1.67;0.80;;;;;;;22.83;55.45;100469.88;4149387;28;19927;-69
2022/06/26 07:17:54;;;;;;;0.77;0.77;;;;;;;22.90;55.35;100475.84;4131942;28;20537;-69
2022/06/26 07:19:59;;;;;;;1.17;0.65;;;;;;;22.97;54.73;100474.69;4131999;28;20049;-69
2022/06/26 07:22:02;;;;;;;2.25;1.10;;;;;;;22.95;54.53;100469.44;4131533;28;20046;-69
2022/06/26 07:24:06;;;;;;;2.03;0.98;;;;;;;23.01;54.54;100485.13;4148076;28;20038;-70
2022/06/26 07:26:33;;;;;;;3.80;1.17;;;;;;;23.07;54.55;100488.47;4147720;28;20085;-69
2022/06/26 07:28:36;;;;;;;0.80;0.70;;;;;;;23.21;53.89;100486.19;4131870;28;20042;-70
2022/06/26 07:30:38;;;;;;;1.27;0.70;;;;;;;23.15;53.15;100502.34;4149192;28;20125;-69
2022/06/26 07:32:44;;;;;;;0.73;0.73;;;;;;;23.10;52.80;100501.59;4131379;28;20039;-69
2022/06/26 07:34:47;;;;;;;0.95;0.85;;;;;;;23.14;52.84;100506.78;4131751;28;20070;-69
2022/06/26 07:36:51;;;;;;;1.80;0.80;;;;;;;23.21;52.56;100503.91;4131687;28;20121;-69
2022/06/26 07:38:54;;;;;;;1.08;0.80;;;;;;;23.18;53.32;100491.59;4131688;28;20133;-69
2022/06/26 07:40:57;;;;;;;2.22;1.17;;;;;;;23.39;52.04;100497.00;4131642;28;20133;-69
2022/06/26 07:43:03;;;;;;;3.10;0.98;;;;;;;23.39;51.96;100495.22;4147245;28;20054;-69
2022/06/26 07:45:10;;;;;;;2.45;0.80;;;;;;;23.41;52.29;100493.38;4131636;28;20042;-70
2022/06/26 07:47:28;;;;;;;1.80;0.80;;;;;;;23.38;52.71;100503.25;4131340;28;20050;-70
2022/06/26 07:49:37;;;;;;;1.67;0.90;;;;;;;23.40;52.65;100496.97;4131560;28;20046;-70
2022/06/26 07:51:41;;;;;;;2.47;1.30;;;;;;;23.39;52.80;100499.66;4131140;28;20137;-69
2022/06/26 07:53:45;;;;;;;1.15;0.95;;;;;;;23.40;52.92;100502.25;4148754;28;20125;-69
2022/06/26 07:55:49;;;;;;;0.88;0.77;;;;;;;23.45;52.89;100515.34;4131379;28;20204;-69
2022/06/26 07:57:52;;;;;;;1.50;0.80;;;;;;;23.49;53.06;100499.25;4131236;28;20048;-70
2022/06/26 07:59:56;;;;;;;1.13;0.82;;;;;;;23.55;53.23;100505.25;4148632;28;20317;-71
2022/06/26 08:01:59;;;;;;;1.15;0.70;;;;;;;23.68;52.35;100502.06;4114796;28;20046;-71
2022/06/26 08:04:03;;;;;;;2.17;0.95;;;;;;;23.83;51.89;100505.00;4147341;28;20060;-71
2022/06/26 08:06:06;;;;;;;1.35;0.70;;;;;;;23.74;51.92;100497.41;4148531;28;20129;-71
2022/06/26 08:08:09;;;;;;;3.42;0.90;;;;;;;23.89;50.88;100486.22;4148555;28;20508;-70
2022/06/26 08:10:13;;;;;;;1.15;0.60;;;;;;;23.99;49.94;100490.22;4148595;28;20057;-71
2022/06/26 08:12:15;;;;;;;1.13;0.63;;;;;;;24.05;49.08;100492.63;4148285;28;20054;-71
2022/06/26 08:14:18;;;;;;;2.20;0.77;;;;;;;23.96;49.23;100498.31;4148470;28;20533;-71
2022/06/26 08:16:23;;;;;;;0.73;0.68;;;;;;;23.93;50.13;100490.47;4148383;28;20044;-71
2022/06/26 08:18:26;;;;;;;1.95;0.90;;;;;;;23.96;50.39;100485.06;4148272;28;20042;-71
2022/06/26 08:20:30;;;;;;;0.77;0.73;;;;;;;24.03;50.10;100483.88;4148405;28;20038;-70
2022/06/26 08:22:32;;;;;;;2.83;0.70;;;;;;;24.01;50.52;100483.06;4148021;28;20560;-70
2022/06/26 08:24:38;;;;;;;1.70;0.77;;;;;;;24.21;49.82;100486.66;4146892;28;20076;-71
2022/06/26 08:26:41;;;;;;;1.38;0.90;;;;;;;24.10;50.84;100487.13;4148261;28;20573;-71
2022/06/26 08:28:44;;;;;;;1.65;0.70;;;;;;;24.12;50.71;100484.41;4114858;28;20051;-71
2022/06/26 08:30:47;;;;;;;2.15;1.08;;;;;;;24.19;50.59;100475.25;4148181;28;20052;-71
2022/06/26 08:32:56;;;;;;;2.28;0.80;;;;;;;24.35;51.21;100468.34;4147870;28;20045;-70
2022/06/26 08:34:59;;;;;;;2.40;1.02;;;;;;;24.53;49.47;100469.34;4130783;28;20038;-72
2022/06/26 08:37:02;;;;;;;1.58;0.90;;;;;;;24.38;50.29;100468.19;4148412;28;20083;-70
2022/06/26 08:39:06;;;;;;;1.35;0.82;;;;;;;24.40;50.74;100466.34;4114490;28;20046;-70
2022/06/26 08:41:10;;;;;;;2.05;1.20;;;;;;;24.33;50.85;100467.56;4148129;28;20069;-70
2022/06/26 08:43:14;;;;;;;2.53;1.30;;;;;;;24.56;50.90;100471.88;4130200;28;20114;-70
2022/06/26 08:45:19;;;;;;;2.25;1.10;;;;;;;24.76;49.82;100470.13;4146511;28;20042;-71
2022/06/26 08:47:24;;;;;;;2.13;1.38;;;;;;;24.78;50.23;100470.06;4148406;28;20042;-71
2022/06/26 08:49:28;;;;;;;2.13;1.42;;;;;;;24.76;50.33;100470.13;4138271;28;20059;-70
2022/06/26 08:51:34;;;;;;;4.18;1.40;;;;;;;24.86;49.31;100466.13;4131529;28;20506;-69
2022/06/26 08:53:39;;;;;;;1.73;1.50;;;;;;;25.02;48.11;100468.97;4131699;28;20521;-70
2022/06/26 08:55:43;;;;;;;2.35;1.27;;;;;;;24.78;49.02;100478.94;4131727;28;20034;-70
2022/06/26 08:57:47;;;;;;;1.90;1.48;;;;;;;24.86;48.59;100470.59;4131723;28;20038;-72
2022/06/26 08:59:50;;;;;;;2.25;1.30;;;;;;;24.77;49.12;100477.19;4131568;28;20054;-70
2022/06/26 09:01:53;;;;;;;2.33;1.35;;;;;;;24.78;49.55;100478.03;4131318;28;20397;-71
2022/06/26 09:03:57;;;;;;;3.13;1.23;;;;;;;24.67;49.87;100486.50;4114344;28;20541;-70
2022/06/26 09:06:01;;;;;;;1.58;1.13;;;;;;;24.68;49.91;100486.44;4130202;28;20498;-70
2022/06/26 09:08:04;;;;;;;3.10;1.70;;;;;;;24.75;49.72;100481.72;4131508;28;20077;-70
2022/06/26 09:10:10;;;;;;;2.17;1.27;;;;;;;24.88;49.45;100480.25;4131539;28;20039;-70
2022/06/26 09:12:13;;;;;;;4.38;1.90;;;;;;;25.06;48.57;100490.97;4130704;28;20422;-70
2022/06/26 09:14:16;;;;;;;1.67;1.08;;;;;;;24.97;48.88;100494.91;4131451;28;20132;-70
2022/06/26 09:16:29;;;;;;;1.63;1.38;;;;;;;25.12;48.74;100497.81;4131512;28;20042;-70
2022/06/26 09:18:35;;;;;;;1.90;0.93;;;;;;;25.13;48.71;100494.19;4114135;28;20114;-71
2022/06/26 09:20:50;;;;;;;1.95;1.10;;;;;;;25.25;48.16;100496.31;4114187;28;20057;-70
2022/06/26 09:22:55;;;;;;;2.97;1.35;;;;;;;25.38;47.62;100486.84;4131087;28;20053;-71
2022/06/26 09:25:00;;;;;;;2.67;0.93;;;;;;;25.23;48.92;100496.38;4131391;28;20046;-70
2022/06/26 09:27:06;;;;;;;0.88;0.88;;;;;;;25.33;49.04;100495.97;4114091;28;20072;-71
2022/06/26 09:29:10;;;;;;;1.50;1.10;;;;;;;25.31;48.73;100495.19;4130104;28;20050;-71
2022/06/26 09:31:19;;;;;;;1.35;0.98;;;;;;;25.27;48.38;100492.63;4131403;28;20043;-71
2022/06/26 09:33:23;;;;;;;3.30;1.02;;;;;;;25.31;48.21;100484.56;4113872;28;20050;-71
2022/06/26 09:35:27;;;;;;;;;;;;;;;25.21;48.14;100486.75;4131784;28;20045;-71
2022/06/26 09:37:35;;;;;;;1.20;1.10;;;;;;;25.24;48.39;100478.63;4131380;28;20350;-73
2022/06/26 09:40:02;;;;;;;1.15;0.80;;;;;;;25.55;48.01;100477.19;4131354;28;20038;-73
2022/06/26 09:42:19;;;;;;;1.02;0.90;;;;;;;25.65;47.48;100467.81;4113625;28;20414;-73
2022/06/26 09:44:23;;;;;;;1.80;1.00;;;;;;;25.64;47.81;100473.22;4113977;28;20042;-72
2022/06/26 09:46:31;;;;;;;0.90;0.80;;;;;;;25.77;46.99;100464.56;4114065;28;20122;-72
2022/06/26 09:48:35;;;;;;;2.00;0.85;;;;;;;25.82;46.85;100468.78;4130061;28;20065;-72
2022/06/26 09:50:39;;;;;;;1.10;0.98;;;;;;;25.84;46.27;100472.25;4097962;29;20503;-72